ASE weather

Aspen-Pitkin Co/Sardy Field
Aspen, Colorado, United States

Public forecast

Using degrees Fahrenheit for public forecast. Weather courtesy of forecast.io.

Current aviation weather report (METAR) for Aspen-Pitkin Co/Sardy Field

Retrieved 2020/04/06 07:53 UTC (60 minutes ago):

KASE 060753Z AUTO VRB04KT 10SM OVC095 03/M06 A2993 RMK AO2 SLP059 T00281061

Aviation forecast (TAF) for Aspen-Pitkin Co/Sardy Field

Retrieved 2020/04/06 06:36 UTC (2 hours ago):

TAF KASE 060534Z 0606/0706 19006KT P6SM FEW200 FM061000 19005KT P6SM SCT150 FM061700 20012G25KT P6SM BKN120 FM070300 20010KT P6SM SCT120